Lytton, Canada
Current Conditions -  °F | °C
As of 1:00 AM on Monday 24 Nov 2014 (Local Time) from CWLY Reporting Station
Clear Clear  
Wind Chill: 35°   Ceiling: Unl
Heat Index: 43°   Visibility: 9mi
Dew Point: 34°   Wind: 15mph
Humidity: 70%   Direction: 190°S
Pressure: 30.24"   Gusts: 24mph
Location:  50.23°N, 121.58°W
Report Text: CWLY 240900Z AUTO 19013G21KT 9SM CLR 06/01 A3024 RMK SLP244
Loading
Personal Weather Stations






























Interactive Weather Map New forecast layout! Learn more

10-Day Weather Forecast

Advertisements
Track Severe Weather on mobile